Time;durP1;ratioP1;P1;durP2;ratioP2;P2;SDS_P1;SDS_P2;PMS_P1;PMS_P2;Temp;Humidity;BMP_temperature;BMP_pressure;BME280_temperature;BME280_humidity;BME280_pressure;Samples;Min_cycle;Max_cycle;Signal;HPM_P1;HPM_P2
2021/09/07 00:01:28;;;;;;;22.80;19.42;;;14.90;87.50;;;;;;5054004;28;20267;-85
2021/09/07 00:03:54;;;;;;;26.67;20.85;;;14.90;87.50;;;;;;5053653;28;20589;-85
2021/09/07 00:06:20;;;;;;;30.92;23.88;;;14.90;87.50;;;;;;5035802;28;20184;-84
2021/09/07 00:08:46;;;;;;;34.63;24.67;;;14.90;87.60;;;;;;5035842;28;20229;-84
2021/09/07 00:11:12;;;;;;;32.65;23.95;;;14.90;88.20;;;;;;5035558;28;20211;-84
2021/09/07 00:13:38;;;;;;;30.63;22.27;;;14.90;88.60;;;;;;5053547;28;20550;-84
2021/09/07 00:16:04;;;;;;;25.92;22.48;;;14.90;88.60;;;;;;5053594;28;20246;-84
2021/09/07 00:18:29;;;;;;;29.05;23.23;;;14.90;88.20;;;;;;5053462;28;20168;-85
2021/09/07 00:20:55;;;;;;;27.33;21.67;;;15.00;88.10;;;;;;5035640;28;20198;-84
2021/09/07 00:23:21;;;;;;;30.60;22.48;;;15.00;87.90;;;;;;5035479;28;20180;-84
2021/09/07 00:25:47;;;;;;;29.67;24.25;;;15.00;87.90;;;;;;5035573;28;20195;-84
2021/09/07 00:28:12;;;;;;;26.20;20.88;;;15.00;88.40;;;;;;5052875;28;20670;-84
2021/09/07 00:30:38;;;;;;;26.17;20.55;;;14.90;88.80;;;;;;5035518;28;20179;-84
2021/09/07 00:33:04;;;;;;;25.52;19.67;;;14.90;88.50;;;;;;5035346;28;20675;-84
2021/09/07 00:35:31;;;;;;;30.52;21.75;;;15.00;88.10;;;;;;5035353;28;20180;-84
2021/09/07 00:37:57;;;;;;;27.63;22.48;;;14.90;88.50;;;;;;5035239;28;20192;-84
2021/09/07 00:40:22;;;;;;;30.08;21.77;;;14.90;88.90;;;;;;5053100;28;20247;-85
2021/09/07 00:42:48;;;;;;;26.50;20.50;;;14.90;88.70;;;;;;5035241;28;20290;-84
2021/09/07 00:45:14;;;;;;;31.80;21.98;;;14.90;88.80;;;;;;5035309;28;20176;-84
2021/09/07 00:47:41;;;;;;;23.83;21.23;;;14.90;89.00;;;;;;5053326;28;20195;-84
2021/09/07 00:50:07;;;;;;;26.13;23.02;;;14.80;88.80;;;;;;5035315;28;20545;-85
2021/09/07 00:52:35;;;;;;;26.73;21.85;;;14.90;88.80;;;;;;5034867;28;20211;-84
2021/09/07 00:55:01;;;;;;;26.58;21.30;;;14.90;88.80;;;;;;5053117;28;20172;-85
2021/09/07 00:57:29;;;;;;;26.30;21.42;;;14.80;88.80;;;;;;5035112;28;20245;-84
2021/09/07 00:59:55;;;;;;;24.55;21.00;;;14.80;89.00;;;;;;5052907;28;20175;-85
2021/09/07 01:02:22;;;;;;;26.42;20.30;;;14.80;89.10;;;;;;5035468;28;20207;-84
2021/09/07 01:04:48;;;;;;;22.00;19.50;;;14.80;88.90;;;;;;5035092;28;20180;-84
2021/09/07 01:07:14;;;;;;;28.40;20.92;;;14.80;88.70;;;;;;5035019;28;20230;-85
2021/09/07 01:09:40;;;;;;;24.92;20.55;;;14.80;89.20;;;;;;5053027;28;20200;-84
2021/09/07 01:12:07;;;;;;;23.42;20.35;;;14.80;89.20;;;;;;5052634;28;20286;-85
2021/09/07 01:14:36;;;;;;;28.88;21.95;;;14.80;89.30;;;;;;5035001;28;20226;-85
2021/09/07 01:17:02;;;;;;;23.25;18.95;;;14.70;89.70;;;;;;5034999;28;20589;-85
2021/09/07 01:19:29;;;;;;;26.30;19.95;;;14.70;89.70;;;;;;5034895;28;20221;-85
2021/09/07 01:21:56;;;;;;;29.73;19.42;;;14.80;89.00;;;;;;5034783;28;20736;-84
2021/09/07 01:24:26;;;;;;;21.33;18.90;;;14.80;88.60;;;;;;5053053;28;20215;-84
2021/09/07 01:26:53;;;;;;;21.63;18.98;;;14.80;88.30;;;;;;5035156;28;20552;-84
2021/09/07 01:29:19;;;;;;;22.00;19.58;;;14.80;88.10;;;;;;5034844;28;20180;-84
2021/09/07 01:31:44;;;;;;;28.92;19.40;;;14.80;88.00;;;;;;5034733;28;20261;-85
2021/09/07 01:34:19;;;;;;;21.83;18.48;;;14.80;87.90;;;;;;5034811;28;20545;-84
2021/09/07 01:36:44;;;;;;;25.83;17.33;;;14.70;88.10;;;;;;5034957;28;20160;-85
2021/09/07 01:39:10;;;;;;;18.38;14.52;;;14.60;88.20;;;;;;5054068;28;20183;-84
2021/09/07 01:41:36;;;;;;;19.33;16.45;;;14.40;88.30;;;;;;5056408;28;20207;-84
2021/09/07 01:44:01;;;;;;;22.00;17.05;;;14.40;88.30;;;;;;5038532;28;20184;-84
2021/09/07 01:46:27;;;;;;;16.35;14.70;;;14.30;88.30;;;;;;5038404;28;20595;-84
2021/09/07 01:48:53;;;;;;;17.40;14.45;;;14.30;88.30;;;;;;5038460;28;20237;-84
2021/09/07 01:51:18;;;;;;;18.88;14.13;;;14.30;88.30;;;;;;5038277;28;20219;-84
2021/09/07 01:53:44;;;;;;;19.60;13.68;;;14.30;88.30;;;;;;5056305;28;20161;-84
2021/09/07 01:56:11;;;;;;;20.08;17.98;;;14.20;88.10;;;;;;5056364;28;20199;-84
2021/09/07 01:58:36;;;;;;;23.98;21.13;;;14.20;87.90;;;;;;5038282;28;20597;-84
2021/09/07 02:01:02;;;;;;;25.40;22.15;;;14.10;87.90;;;;;;5056381;28;20172;-84
2021/09/07 02:03:28;;;;;;;20.45;18.33;;;14.00;88.10;;;;;;5038306;28;20179;-84
2021/09/07 02:05:53;;;;;;;18.55;16.67;;;13.90;88.10;;;;;;5038120;28;20644;-85
2021/09/07 02:08:19;;;;;;;16.07;14.23;;;13.90;88.00;;;;;;5038209;28;20181;-84
2021/09/07 02:10:44;;;;;;;16.20;14.67;;;14.00;87.90;;;;;;5055904;28;20168;-84
2021/09/07 02:13:10;;;;;;;17.23;15.07;;;13.90;87.60;;;;;;5038087;28;20199;-84
2021/09/07 02:15:36;;;;;;;18.42;13.40;;;13.90;87.50;;;;;;5055930;28;20172;-84
2021/09/07 02:18:01;;;;;;;16.50;13.33;;;13.80;87.20;;;;;;5038142;28;20187;-84
2021/09/07 02:20:27;;;;;;;13.02;11.82;;;13.90;86.90;;;;;;5037900;28;20313;-84
2021/09/07 02:22:53;;;;;;;13.03;11.77;;;13.80;86.80;;;;;;5037865;28;20227;-85
2021/09/07 02:25:18;;;;;;;14.80;13.30;;;13.80;86.70;;;;;;5055792;28;20546;-84
2021/09/07 02:27:44;;;;;;;17.30;14.07;;;13.80;86.50;;;;;;5037885;28;20677;-84
2021/09/07 02:30:11;;;;;;;18.08;14.57;;;13.80;86.50;;;;;;5037767;28;20180;-84
2021/09/07 02:32:36;;;;;;;19.40;13.88;;;13.80;86.60;;;;;;5037364;28;20560;-84
2021/09/07 02:35:03;;;;;;;18.33;15.23;;;13.80;86.60;;;;;;5037790;28;20178;-85
2021/09/07 02:37:28;;;;;;;24.77;16.35;;;13.80;86.60;;;;;;5055792;28;20183;-85
2021/09/07 02:39:54;;;;;;;20.17;17.50;;;13.80;86.60;;;;;;5055354;28;20168;-84
2021/09/07 02:42:19;;;;;;;23.23;18.67;;;13.70;86.60;;;;;;5037642;28;20698;-84
2021/09/07 02:44:45;;;;;;;20.00;16.00;;;13.70;86.60;;;;;;5055345;28;20195;-84
2021/09/07 02:47:11;;;;;;;15.93;13.67;;;13.70;86.50;;;;;;5055401;28;20176;-84
2021/09/07 02:49:36;;;;;;;13.57;12.23;;;13.60;86.50;;;;;;5036860;28;20187;-84
2021/09/07 02:52:03;;;;;;;12.43;11.23;;;13.40;86.70;;;;;;5036895;28;20215;-84
2021/09/07 02:54:29;;;;;;;43.93;16.60;;;13.20;87.00;;;;;;5055040;28;20553;-84
2021/09/07 02:56:54;;;;;;;98.90;20.33;;;13.00;87.20;;;;;;5037146;28;20176;-84
2021/09/07 02:59:21;;;;;;;29.37;19.63;;;12.80;87.40;;;;;;5037233;28;20762;-84
2021/09/07 03:01:46;;;;;;;23.70;20.10;;;12.70;87.50;;;;;;5037032;28;20230;-84
2021/09/07 03:04:12;;;;;;;19.87;17.43;;;12.70;87.70;;;;;;5054991;28;20218;-84
2021/09/07 03:06:38;;;;;;;20.13;18.00;;;12.60;87.80;;;;;;5037078;28;20270;-84
2021/09/07 03:09:03;;;;;;;19.07;17.17;;;12.50;87.80;;;;;;5036978;28;20187;-84
2021/09/07 03:11:30;;;;;;;17.77;14.40;;;12.50;88.00;;;;;;5036945;28;20196;-84
2021/09/07 03:13:56;;;;;;;15.40;13.70;;;12.60;88.10;;;;;;5054700;28;20247;-84
2021/09/07 03:16:22;;;;;;;14.57;13.03;;;12.60;88.10;;;;;;5036887;28;20261;-84
2021/09/07 03:18:47;;;;;;;13.43;11.57;;;12.60;87.90;;;;;;5054649;28;20629;-84
2021/09/07 03:21:13;;;;;;;12.80;11.60;;;12.70;87.60;;;;;;5036746;28;20200;-84
2021/09/07 03:23:38;;;;;;;19.13;13.10;;;12.70;87.30;;;;;;5036860;28;20262;-84
2021/09/07 03:26:04;;;;;;;24.30;17.73;;;12.70;87.10;;;;;;5036755;28;20180;-84
2021/09/07 03:28:30;;;;;;;36.83;23.13;;;12.70;86.80;;;;;;5036649;28;20172;-84
2021/09/07 03:30:55;;;;;;;42.13;21.23;;;12.70;86.60;;;;;;5036413;28;20180;-84
2021/09/07 03:33:21;;;;;;;22.77;19.67;;;12.70;86.60;;;;;;5036529;28;20234;-84
2021/09/07 03:35:46;;;;;;;22.33;18.97;;;12.70;86.60;;;;;;5036575;28;20180;-84
2021/09/07 03:38:12;;;;;;;18.37;16.43;;;12.70;86.60;;;;;;5054342;28;20179;-84
2021/09/07 03:40:38;;;;;;;40.13;16.70;;;12.70;86.60;;;;;;5036335;28;20179;-84
2021/09/07 03:43:04;;;;;;;30.53;15.90;;;12.70;86.80;;;;;;5036212;28;20199;-84
2021/09/07 03:45:30;;;;;;;52.80;15.73;;;12.70;87.30;;;;;;5036343;28;20229;-84
2021/09/07 03:47:56;;;;;;;66.60;15.90;;;12.70;87.20;;;;;;5036498;28;20179;-84
2021/09/07 03:50:21;;;;;;;32.00;16.03;;;12.70;87.60;;;;;;5036226;28;20187;-84
2021/09/07 03:52:47;;;;;;;30.27;13.90;;;12.70;87.80;;;;;;5035969;28;20755;-84
2021/09/07 03:55:13;;;;;;;16.00;14.33;;;12.70;87.80;;;;;;5036034;28;20241;-84
2021/09/07 03:57:39;;;;;;;24.60;14.33;;;12.70;87.60;;;;;;5036111;28;20176;-84
2021/09/07 04:00:06;;;;;;;20.03;16.37;;;12.70;87.30;;;;;;5036173;28;20176;-84
2021/09/07 04:02:31;;;;;;;23.57;16.87;;;12.50;87.60;;;;;;5035151;28;20253;-84
2021/09/07 04:04:57;;;;;;;18.53;16.63;;;12.40;87.70;;;;;;5053875;28;20188;-84
2021/09/07 04:07:22;;;;;;;18.73;15.53;;;12.40;87.60;;;;;;5035905;28;20180;-84
2021/09/07 04:09:48;;;;;;;19.80;15.17;;;12.40;87.70;;;;;;5053746;28;20172;-84
2021/09/07 04:12:14;;;;;;;17.17;15.10;;;12.30;87.60;;;;;;5053553;28;20200;-84
2021/09/07 04:14:39;;;;;;;17.93;15.23;;;12.40;87.60;;;;;;5035875;28;20180;-84
2021/09/07 04:17:06;;;;;;;54.20;17.97;;;12.40;87.50;;;;;;5035629;28;20229;-84
2021/09/07 04:19:32;;;;;;;106.17;15.87;;;12.30;87.50;;;;;;5035676;28;20383;-84
2021/09/07 04:21:58;;;;;;;73.40;14.30;;;12.20;87.80;;;;;;5035696;28;20210;-84
2021/09/07 04:24:24;;;;;;;17.13;15.53;;;12.00;88.00;;;;;;5035612;28;20271;-84
2021/09/07 04:26:53;;;;;;;59.43;11.90;;;11.90;88.10;;;;;;5035513;28;20222;-84
2021/09/07 04:29:19;;;;;;;47.80;10.93;;;11.90;88.40;;;;;;5035611;28;20263;-84
2021/09/07 04:31:44;;;;;;;30.97;9.40;;;11.70;88.60;;;;;;5053519;28;20211;-84
2021/09/07 04:34:10;;;;;;;17.87;9.23;;;11.60;89.00;;;;;;5053472;28;20176;-84
2021/09/07 04:36:36;;;;;;;18.40;8.90;;;11.50;89.50;;;;;;5035484;28;20579;-84
2021/09/07 04:39:01;;;;;;;17.53;9.90;;;11.40;89.90;;;;;;5035379;28;20175;-84
2021/09/07 04:41:28;;;;;;;14.20;11.00;;;11.30;90.20;;;;;;5035371;28;20565;-84
2021/09/07 04:43:53;;;;;;;66.40;14.50;;;11.30;90.60;;;;;;5035383;28;20172;-84
2021/09/07 04:46:19;;;;;;;16.80;15.40;;;11.30;90.90;;;;;;5035432;28;20183;-84
2021/09/07 04:48:48;;;;;;;16.57;15.17;;;11.30;90.90;;;;;;5035718;28;20652;-84
2021/09/07 04:51:14;;;;;;;41.10;17.00;;;11.40;90.90;;;;;;5035545;28;20216;-84
2021/09/07 04:53:40;;;;;;;42.30;16.90;;;11.50;91.00;;;;;;5035183;28;20161;-84
2021/09/07 04:56:05;;;;;;;62.47;18.07;;;11.40;91.00;;;;;;5035721;28;20225;-84
2021/09/07 04:58:31;;;;;;;75.00;18.40;;;11.40;91.40;;;;;;5053300;28;20572;-84
2021/09/07 05:00:56;;;;;;;22.23;20.00;;;11.40;91.50;;;;;;5035105;28;20172;-84
2021/09/07 05:03:22;;;;;;;41.17;19.20;;;11.50;91.50;;;;;;5035070;28;20548;-84
2021/09/07 05:05:48;;;;;;;29.53;18.03;;;11.50;91.40;;;;;;5035064;28;20271;-84
2021/09/07 05:08:13;;;;;;;19.80;18.00;;;11.70;91.50;;;;;;5035120;28;20176;-84
2021/09/07 05:10:39;;;;;;;81.63;18.40;;;11.70;91.40;;;;;;5035076;28;20172;-84
2021/09/07 05:13:04;;;;;;;49.63;17.23;;;11.70;91.40;;;;;;5036217;28;20211;-84
2021/09/07 05:15:30;;;;;;;21.10;16.27;;;11.70;91.30;;;;;;5039184;28;20168;-84
2021/09/07 05:17:56;;;;;;;83.07;18.60;;;11.80;91.40;;;;;;5038898;28;20257;-84
2021/09/07 05:20:21;;;;;;;70.33;17.63;;;11.80;91.40;;;;;;5039185;28;20176;-84
2021/09/07 05:22:47;;;;;;;46.03;16.93;;;11.80;91.30;;;;;;5056791;28;20188;-84
2021/09/07 05:25:13;;;;;;;72.03;18.13;;;11.80;91.40;;;;;;5056840;28;20168;-84
2021/09/07 05:27:39;;;;;;;39.40;17.43;;;11.80;91.60;;;;;;5038885;28;20171;-84
2021/09/07 05:30:07;;;;;;;17.83;16.07;;;11.90;91.60;;;;;;5038818;28;20640;-84
2021/09/07 05:32:32;;;;;;;16.90;14.20;;;12.00;91.60;;;;;;5038586;28;20218;-84
2021/09/07 05:34:58;;;;;;;15.40;14.00;;;12.00;91.50;;;;;;5038657;28;20258;-84
2021/09/07 05:37:24;;;;;;;23.80;13.87;;;12.10;91.40;;;;;;5057092;28;20203;-84
2021/09/07 05:39:50;;;;;;;21.20;13.80;;;12.20;91.30;;;;;;5038759;28;20172;-84
2021/09/07 05:42:15;;;;;;;21.03;13.63;;;12.20;91.20;;;;;;5038996;28;20196;-84
2021/09/07 05:44:41;;;;;;;47.17;13.27;;;12.30;91.00;;;;;;5038506;28;20636;-84
2021/09/07 05:47:07;;;;;;;40.87;13.97;;;12.30;90.90;;;;;;5056858;28;20556;-84
2021/09/07 05:49:33;;;;;;;55.30;13.30;;;12.30;90.90;;;;;;5056485;28;20172;-84
2021/09/07 05:51:59;;;;;;;33.20;14.57;;;12.30;90.90;;;;;;5056067;28;20623;-84
2021/09/07 05:54:25;;;;;;;16.57;15.00;;;12.30;91.20;;;;;;5038568;28;20665;-84
2021/09/07 05:56:51;;;;;;;14.70;13.50;;;12.30;91.20;;;;;;5038294;28;20168;-84
2021/09/07 05:59:17;;;;;;;14.40;13.13;;;12.40;91.10;;;;;;5038286;28;20175;-84
2021/09/07 06:01:45;;;;;;;30.57;13.27;;;12.40;90.90;;;;;;5056009;28;20287;-84
2021/09/07 06:04:10;;;;;;;15.10;13.67;;;12.50;90.80;;;;;;5056134;28;20176;-84
2021/09/07 06:06:36;;;;;;;14.83;12.63;;;12.50;90.80;;;;;;5038326;28;20180;-84
2021/09/07 06:09:02;;;;;;;15.67;13.20;;;12.50;90.70;;;;;;5038149;28;20698;-84
2021/09/07 06:11:28;;;;;;;14.07;12.87;;;12.60;90.60;;;;;;5055918;28;20196;-84
2021/09/07 06:13:54;;;;;;;15.00;13.43;;;12.60;90.50;;;;;;5038055;28;20175;-84
2021/09/07 06:16:21;;;;;;;18.67;16.77;;;12.60;90.30;;;;;;5038142;28;20202;-84
2021/09/07 06:18:47;;;;;;;20.13;18.13;;;12.80;90.60;;;;;;5038091;28;20259;-84
2021/09/07 06:21:12;;;;;;;20.67;18.67;;;12.80;91.10;;;;;;5055718;28;20630;-84
2021/09/07 06:23:38;;;;;;;20.03;18.23;;;12.80;91.40;;;;;;5055917;28;20168;-84
2021/09/07 06:26:04;;;;;;;22.90;20.73;;;12.80;91.70;;;;;;5036919;28;20172;-84
2021/09/07 06:28:29;;;;;;;22.33;20.00;;;12.80;91.70;;;;;;5055547;28;20250;-83
2021/09/07 06:30:55;;;;;;;24.10;21.50;;;12.80;91.70;;;;;;5037636;28;20179;-84
2021/09/07 06:33:21;;;;;;;24.53;21.97;;;12.80;91.80;;;;;;5055463;28;20168;-83
2021/09/07 06:35:47;;;;;;;23.93;21.47;;;12.90;91.90;;;;;;5037642;28;20537;-84
2021/09/07 06:38:12;;;;;;;23.80;21.37;;;13.00;91.90;;;;;;5037472;28;20176;-84
2021/09/07 06:40:39;;;;;;;23.10;20.90;;;12.90;91.90;;;;;;5037499;28;20172;-84
2021/09/07 06:43:05;;;;;;;25.17;22.53;;;13.00;92.00;;;;;;5055171;28;20278;-84
2021/09/07 06:45:31;;;;;;;27.70;24.80;;;13.10;92.10;;;;;;5037453;28;20203;-84
2021/09/07 06:47:56;;;;;;;30.00;27.00;;;13.10;92.20;;;;;;5055990;28;20540;-84
2021/09/07 06:50:22;;;;;;;30.80;27.80;;;13.20;92.60;;;;;;5055282;28;20176;-85
2021/09/07 06:52:48;;;;;;;35.00;29.10;;;13.20;92.80;;;;;;5037542;28;20310;-84
2021/09/07 06:55:14;;;;;;;33.97;30.53;;;13.30;93.00;;;;;;5037622;28;20219;-84
2021/09/07 06:57:40;;;;;;;39.20;33.20;;;13.40;93.10;;;;;;5037067;28;20168;-84
2021/09/07 07:00:06;;;;;;;42.60;34.83;;;13.50;93.40;;;;;;5055139;28;20583;-84
2021/09/07 07:02:37;;;;;;;39.37;35.00;;;13.60;93.50;;;;;;5036911;28;20257;-84
2021/09/07 07:05:03;;;;;;;42.97;34.77;;;13.70;93.60;;;;;;5054956;28;20156;-84
2021/09/07 07:07:28;;;;;;;44.53;37.50;;;13.80;93.80;;;;;;5036835;28;20667;-84
2021/09/07 07:09:54;;;;;;;44.87;37.57;;;13.90;93.80;;;;;;5036978;28;20184;-84
2021/09/07 07:12:20;;;;;;;46.13;39.13;;;14.00;93.90;;;;;;5054637;28;20215;-84
2021/09/07 07:14:45;;;;;;;49.13;39.10;;;14.10;94.00;;;;;;5036855;28;20652;-84
2021/09/07 07:17:11;;;;;;;48.27;41.87;;;14.20;93.90;;;;;;5037467;28;20175;-84
2021/09/07 07:19:37;;;;;;;53.03;40.93;;;14.30;94.10;;;;;;5037797;28;20172;-84
2021/09/07 07:22:03;;;;;;;53.20;41.50;;;14.30;94.10;;;;;;5055083;28;20231;-84
2021/09/07 07:24:29;;;;;;;63.67;48.93;;;14.40;94.00;;;;;;5054566;28;20640;-84
2021/09/07 07:26:55;;;;;;;65.47;49.87;;;14.50;94.20;;;;;;5036729;28;20184;-84
2021/09/07 07:29:20;;;;;;;69.73;50.80;;;14.60;94.10;;;;;;5055294;28;20172;-84
2021/09/07 07:31:46;;;;;;;71.03;50.73;;;14.70;94.10;;;;;;5054289;28;20719;-84
2021/09/07 07:34:12;;;;;;;59.43;44.73;;;14.70;94.20;;;;;;5036563;28;20178;-84
2021/09/07 07:36:37;;;;;;;60.23;46.63;;;14.80;94.20;;;;;;5036519;28;20207;-84
2021/09/07 07:39:04;;;;;;;51.47;39.33;;;14.90;94.20;;;;;;5036443;28;20176;-84
2021/09/07 07:41:30;;;;;;;40.63;30.00;;;14.90;94.00;;;;;;5054265;28;20195;-84
2021/09/07 07:43:55;;;;;;;32.53;23.50;;;14.90;93.80;;;;;;5036581;28;20325;-85
2021/09/07 07:46:21;;;;;;;32.10;19.13;;;14.90;92.70;;;;;;5036960;28;20176;-84
2021/09/07 07:48:47;;;;;;;22.87;18.47;;;15.10;92.30;;;;;;5036251;28;20172;-84
2021/09/07 07:51:13;;;;;;;23.40;15.97;;;15.20;91.30;;;;;;5053847;28;20199;-84
2021/09/07 07:53:39;;;;;;;18.33;13.67;;;15.30;89.80;;;;;;5036258;28;20655;-83
2021/09/07 07:56:06;;;;;;;17.13;9.07;;;15.30;90.10;;;;;;5053959;28;20171;-84
2021/09/07 07:58:31;;;;;;;18.63;12.73;;;15.30;88.90;;;;;;5053978;28;20260;-84
2021/09/07 08:00:57;;;;;;;23.35;13.40;;;15.40;89.00;;;;;;5035900;28;20254;-84
2021/09/07 08:03:23;;;;;;;18.48;13.50;;;15.50;88.50;;;;;;5036289;28;20179;-84
2021/09/07 08:05:49;;;;;;;22.27;13.75;;;15.60;88.80;;;;;;5037828;28;20172;-84
2021/09/07 08:08:15;;;;;;;18.85;12.57;;;15.70;88.50;;;;;;5036170;28;20227;-84
2021/09/07 08:10:41;;;;;;;19.98;15.23;;;15.70;88.10;;;;;;5053651;28;20172;-84
2021/09/07 08:13:07;;;;;;;23.65;16.15;;;16.00;88.80;;;;;;5035560;28;20299;-84
2021/09/07 08:15:33;;;;;;;20.60;15.57;;;16.10;87.80;;;;;;5037759;28;20184;-84
2021/09/07 08:17:59;;;;;;;28.02;17.67;;;16.20;87.70;;;;;;5036646;28;20176;-84
2021/09/07 08:20:26;;;;;;;20.48;17.25;;;16.20;87.50;;;;;;5054191;28;20160;-85
2021/09/07 08:22:52;;;;;;;27.17;21.10;;;16.30;88.10;;;;;;5035781;28;20204;-84
2021/09/07 08:25:18;;;;;;;27.58;20.55;;;16.40;88.30;;;;;;5054133;28;20179;-84
2021/09/07 08:27:43;;;;;;;25.48;18.65;;;16.50;88.50;;;;;;5036090;28;20180;-85
2021/09/07 08:30:10;;;;;;;23.08;16.80;;;16.60;88.00;;;;;;5055165;28;20180;-84
2021/09/07 08:32:40;;;;;;;20.63;15.75;;;16.70;87.30;;;;;;5036749;28;20200;-85
2021/09/07 08:35:07;;;;;;;20.23;14.20;;;16.80;87.60;;;;;;5037671;28;20178;-84
2021/09/07 08:37:33;;;;;;;26.25;13.93;;;16.90;86.10;;;;;;5054968;28;20591;-85
2021/09/07 08:39:59;;;;;;;19.73;13.73;;;16.80;85.00;;;;;;5036943;28;20203;-85
2021/09/07 08:42:25;;;;;;;18.30;13.35;;;17.00;86.00;;;;;;5037358;28;20231;-85
2021/09/07 08:44:50;;;;;;;15.77;11.27;;;17.10;86.00;;;;;;5038024;28;20182;-84
2021/09/07 08:47:17;;;;;;;16.33;9.60;;;17.10;84.60;;;;;;5038517;28;20183;-84
2021/09/07 08:49:50;;;;;;;16.15;8.82;;;17.20;84.40;;;;;;5036594;28;20183;-84
2021/09/07 08:52:18;;;;;;;14.82;7.97;;;17.30;83.70;;;;;;5054423;28;20222;-85
2021/09/07 08:54:45;;;;;;;12.00;7.78;;;17.40;83.50;;;;;;5053483;28;20169;-85
2021/09/07 08:57:11;;;;;;;9.02;7.18;;;17.40;82.70;;;;;;5036411;28;20206;-84
2021/09/07 08:59:37;;;;;;;12.00;7.20;;;17.50;82.30;;;;;;5053663;28;20171;-84
2021/09/07 09:02:17;;;;;;;8.68;6.70;;;17.50;80.60;;;;;;5034992;28;20195;-86
2021/09/07 09:04:46;;;;;;;10.55;6.70;;;17.60;81.30;;;;;;5052829;28;20546;-86
2021/09/07 09:07:23;;;;;;;11.23;7.80;;;17.70;81.80;;;;;;5035088;28;20229;-86
2021/09/07 09:09:50;;;;;;;11.95;8.18;;;17.90;81.40;;;;;;5035287;28;20176;-86
2021/09/07 09:12:17;;;;;;;13.35;7.82;;;17.80;81.20;;;;;;5052744;28;20253;-86
2021/09/07 09:14:45;;;;;;;15.05;8.18;;;18.00;81.20;;;;;;5035617;28;20180;-86
2021/09/07 09:17:17;;;;;;;9.75;7.10;;;18.20;81.70;;;;;;5034903;28;20174;-86
2021/09/07 09:20:07;;;;;;;11.90;8.30;;;18.50;81.20;;;;;;5035297;28;20199;-86
2021/09/07 09:22:53;;;;;;;10.45;8.43;;;18.60;80.00;;;;;;5035124;28;20569;-86
2021/09/07 09:25:24;;;;;;;12.30;8.52;;;18.60;79.50;;;;;;5034864;28;20184;-86
2021/09/07 09:28:10;;;;;;;13.40;8.02;;;18.70;80.20;;;;;;5034834;28;20179;-86
2021/09/07 09:30:41;;;;;;;9.38;6.97;;;18.90;79.40;;;;;;5034810;28;20259;-86
2021/09/07 09:33:09;;;;;;;10.27;6.75;;;19.10;78.40;;;;;;5052572;28;20821;-86
2021/09/07 09:35:53;;;;;;;11.85;6.78;;;19.20;77.70;;;;;;5052542;28;20213;-85
2021/09/07 09:38:21;;;;;;;8.00;5.90;;;19.30;75.40;;;;;;5034908;28;20597;-86
2021/09/07 09:40:58;;;;;;;7.93;5.90;;;19.20;75.40;;;;;;5034803;28;20177;-86
2021/09/07 09:43:33;;;;;;;8.00;6.40;;;19.50;76.00;;;;;;5034880;28;20647;-86
2021/09/07 09:46:17;;;;;;;11.73;6.80;;;19.50;74.50;;;;;;5034998;28;20178;-86
2021/09/07 09:48:43;;;;;;;9.07;6.25;;;19.20;76.40;;;;;;5034935;28;20547;-85
2021/09/07 09:51:09;;;;;;;12.07;6.78;;;19.20;74.70;;;;;;5034521;28;20192;-85
2021/09/07 09:53:37;;;;;;;9.82;6.43;;;19.40;75.80;;;;;;5052715;28;20160;-85
2021/09/07 09:56:03;;;;;;;14.10;7.15;;;19.60;74.60;;;;;;5034632;28;20303;-85
2021/09/07 09:58:31;;;;;;;10.93;6.97;;;19.60;74.30;;;;;;5052443;28;20198;-85
2021/09/07 10:00:56;;;;;;;11.82;7.82;;;19.60;73.50;;;;;;5054969;28;20273;-85
2021/09/07 10:03:22;;;;;;;9.27;6.97;;;19.60;71.50;;;;;;5038364;28;20210;-85
2021/09/07 10:05:48;;;;;;;11.65;7.05;;;19.80;73.70;;;;;;5038082;28;20180;-85
2021/09/07 10:08:16;;;;;;;9.45;6.80;;;19.90;73.20;;;;;;5056104;28;20179;-85
2021/09/07 10:11:06;;;;;;;14.32;6.25;;;20.20;72.30;;;;;;5055994;28;20294;-85
2021/09/07 10:13:34;;;;;;;9.52;6.13;;;20.00;70.90;;;;;;5038053;28;20190;-85
2021/09/07 10:16:10;;;;;;;8.73;6.05;;;20.10;69.00;;;;;;5038261;28;20226;-84
2021/09/07 10:18:52;;;;;;;12.02;6.75;;;19.70;67.80;;;;;;5038369;28;20172;-85
2021/09/07 10:24:18;;;;;;;11.05;6.50;;;20.20;68.80;;;;;;5056084;28;20172;-85
2021/09/07 10:26:43;;;;;;;9.88;6.40;;;20.40;68.50;;;;;;5056131;28;20636;-85
2021/09/07 10:29:19;;;;;;;11.40;6.60;;;20.40;67.70;;;;;;5037830;28;20206;-85
2021/09/07 10:31:50;;;;;;;11.27;7.03;;;20.60;66.70;;;;;;5056489;28;20199;-85
2021/09/07 10:34:23;;;;;;;8.40;6.18;;;20.40;66.60;;;;;;5038102;28;20652;-86
2021/09/07 10:37:04;;;;;;;12.35;7.80;;;20.70;67.40;;;;;;5037867;28;20214;-86
2021/09/07 10:39:33;;;;;;;14.30;8.15;;;20.70;68.50;;;;;;5055683;28;20176;-86
2021/09/07 10:42:02;;;;;;;9.93;7.57;;;20.50;66.10;;;;;;5055671;28;20563;-85
2021/09/07 10:44:38;;;;;;;9.25;7.47;;;20.60;68.00;;;;;;5055358;28;20168;-86
2021/09/07 10:47:10;;;;;;;11.65;7.63;;;20.70;65.70;;;;;;5037760;28;20176;-85
2021/09/07 10:49:53;;;;;;;12.70;7.38;;;20.70;66.80;;;;;;5055609;28;20206;-85
2021/09/07 10:52:25;;;;;;;11.07;7.03;;;20.80;66.60;;;;;;5037072;28;20221;-86
2021/09/07 10:54:51;;;;;;;10.45;6.88;;;20.70;66.10;;;;;;5055268;28;20537;-85
2021/09/07 10:57:32;;;;;;;10.55;7.00;;;20.70;66.50;;;;;;5055480;28;20256;-85
2021/09/07 11:00:13;;;;;;;11.75;7.45;;;20.80;68.00;;;;;;5055417;28;20186;-85
2021/09/07 11:02:41;;;;;;;13.38;7.47;;;21.10;66.90;;;;;;5055328;28;20187;-86
2021/09/07 11:05:37;;;;;;;12.07;8.20;;;21.20;66.00;;;;;;5054962;28;20692;-87
2021/09/07 11:08:10;;;;;;;10.73;8.75;;;21.20;66.80;;;;;;5044509;28;20203;-86
2021/09/07 11:10:49;;;;;;;11.55;8.93;;;21.10;67.10;;;;;;5036759;28;20168;-86
2021/09/07 11:13:30;;;;;;;14.30;8.82;;;21.20;65.10;;;;;;5036942;28;20214;-85
2021/09/07 11:16:03;;;;;;;13.57;8.27;;;21.50;66.20;;;;;;5055184;28;20164;-86
2021/09/07 11:18:34;;;;;;;13.45;8.98;;;21.70;64.60;;;;;;5054778;28;20163;-85
2021/09/07 11:21:07;;;;;;;11.23;7.13;;;21.90;65.30;;;;;;5054616;28;20536;-85
2021/09/07 11:23:37;;;;;;;11.38;9.40;;;22.10;67.20;;;;;;5036735;28;20245;-85
2021/09/07 11:26:10;;;;;;;12.50;8.57;;;22.20;63.60;;;;;;5054587;28;20164;-85
2021/09/07 11:28:37;;;;;;;14.10;7.43;;;22.20;64.20;;;;;;5054547;28;20148;-86
2021/09/07 11:31:04;;;;;;;10.90;7.45;;;22.40;65.10;;;;;;5036262;28;20183;-86
2021/09/07 11:33:33;;;;;;;13.38;8.10;;;22.70;59.10;;;;;;5036541;28;20254;-86
2021/09/07 11:36:03;;;;;;;12.18;8.45;;;22.50;60.00;;;;;;5054320;28;20179;-85
2021/09/07 11:38:31;;;;;;;9.27;7.22;;;22.20;60.50;;;;;;5054243;28;20175;-85
2021/09/07 11:41:02;;;;;;;14.05;7.53;;;22.00;61.20;;;;;;5036353;28;20172;-85
2021/09/07 11:43:42;;;;;;;9.90;6.75;;;21.90;62.60;;;;;;5054318;28;20166;-87
2021/09/07 11:46:29;;;;;;;9.57;7.55;;;22.30;64.10;;;;;;5054159;28;20168;-86
2021/09/07 11:49:12;;;;;;;9.88;7.50;;;22.40;61.60;;;;;;5054163;28;20162;-87
2021/09/07 11:51:42;;;;;;;9.57;7.65;;;22.20;60.30;;;;;;5036032;28;20223;-86
2021/09/07 11:54:09;;;;;;;11.10;7.43;;;22.50;59.80;;;;;;5036105;28;20262;-86
2021/09/07 11:56:38;;;;;;;11.68;6.30;;;22.80;60.80;;;;;;5053894;28;20208;-87
2021/09/07 11:59:14;;;;;;;11.73;7.80;;;23.20;60.60;;;;;;5053880;28;20171;-87
2021/09/07 12:01:42;;;;;;;8.68;7.00;;;23.40;57.30;;;;;;5053841;28;20200;-86
2021/09/07 12:04:13;;;;;;;14.13;7.57;;;23.60;58.00;;;;;;5035938;28;20271;-86
2021/09/07 12:06:42;;;;;;;9.77;6.75;;;23.70;56.40;;;;;;5053789;28;20521;-86
2021/09/07 12:09:27;;;;;;;10.40;7.03;;;23.70;55.40;;;;;;5036207;28;20266;-86
2021/09/07 12:12:13;;;;;;;6.05;5.45;;;23.40;55.20;;;;;;5053551;28;20199;-86
2021/09/07 12:14:39;;;;;;;10.98;6.75;;;23.80;58.30;;;;;;5053499;28;20184;-86
2021/09/07 12:17:07;;;;;;;9.40;7.20;;;23.60;55.60;;;;;;5053627;28;20168;-86
2021/09/07 12:19:35;;;;;;;11.48;7.57;;;23.60;52.90;;;;;;5053719;28;20648;-86
2021/09/07 12:22:11;;;;;;;8.73;7.25;;;23.40;56.30;;;;;;5053092;28;20206;-87
2021/09/07 12:24:40;;;;;;;10.23;7.15;;;23.50;57.20;;;;;;5053621;28;20174;-87
2021/09/07 12:27:19;;;;;;;10.43;7.70;;;23.50;56.40;;;;;;5035699;28;20184;-87
2021/09/07 12:30:07;;;;;;;11.57;8.50;;;23.20;55.60;;;;;;5053433;28;20203;-87
2021/09/07 12:32:58;;;;;;;13.70;8.23;;;22.90;58.90;;;;;;5035938;28;20203;-88
2021/09/07 12:35:32;;;;;;;17.08;7.97;;;23.20;57.30;;;;;;5053357;28;20152;-88
2021/09/07 12:38:01;;;;;;;14.13;9.13;;;23.20;57.80;;;;;;5053293;28;20180;-86